Terminal Aerodrome Forecast
Issued by NWS

Home | Current Version | Previous Version | Text Only | Print | Product List | Glossary Off
Versions: 1 2 3 4 5 6 7 8 9 10 11 12 13

653
FTUS42 KTBW 051126
TAFRSW
TAF
KRSW 051126Z 0512/0612 12003KT 5SM BR SCT005 SCT250
      TEMPO 0512/0513 1SM BR BKN002
     FM051500 16012G18KT P6SM SCT020 BKN050 OVC100
     FM052000 18014G22KT P6SM VCSH SCT025 BKN050 OVC100
     FM060100 15007KT P6SM VCSH SCT025 OVC050
     FM060600 16008KT 5SM -RA BR VCTS SCT015CB OVC025=

USA.gov is the U.S. government's official web portal to all federal, state and local government web resources and services.